createdAt,value
2017-12-09T00:01:46.196Z,15.88
2017-12-09T00:04:13.714Z,19.08
2017-12-09T00:06:41.232Z,11.38
2017-12-09T00:09:09.522Z,14.85
2017-12-09T00:11:37.048Z,16.30
2017-12-09T00:14:04.534Z,15.25
2017-12-09T00:16:32.809Z,13.62
2017-12-09T00:19:01.086Z,13.10
2017-12-09T00:21:29.360Z,15.10
2017-12-09T00:23:57.636Z,13.20
2017-12-09T00:28:58.820Z,16.33
2017-12-09T00:31:26.339Z,10.77
2017-12-09T00:33:53.836Z,15.07
2017-12-09T00:36:21.328Z,14.45
2017-12-09T00:38:48.947Z,14.20
2017-12-09T00:41:16.439Z,12.02
2017-12-09T00:43:43.917Z,12.07
2017-12-09T00:46:11.443Z,13.35
2017-12-09T00:48:38.930Z,13.07
2017-12-09T00:51:06.432Z,11.63
2017-12-09T00:53:33.937Z,13.18
2017-12-09T00:56:01.439Z,10.50
2017-12-09T00:58:29.693Z,11.27
2017-12-09T01:00:57.297Z,10.50
2017-12-09T01:03:24.790Z,11.70
2017-12-09T01:05:52.294Z,8.65
2017-12-09T01:08:19.793Z,9.60
2017-12-09T01:10:47.277Z,11.52
2017-12-09T01:13:14.799Z,11.95
2017-12-09T01:15:54.367Z,12.85
2017-12-09T01:18:33.862Z,13.35
2017-12-09T01:21:01.374Z,12.50
2017-12-09T01:23:28.981Z,11.90
2017-12-09T01:25:56.511Z,15.25
2017-12-09T01:28:24.769Z,16.80
2017-12-09T01:30:52.258Z,14.65
2017-12-09T01:33:20.529Z,17.23
2017-12-09T01:35:48.791Z,15.55
2017-12-09T01:38:16.273Z,17.90
2017-12-09T01:40:43.840Z,18.12
2017-12-09T01:43:11.340Z,17.35
2017-12-09T01:45:38.830Z,15.10
2017-12-09T01:48:07.130Z,16.27
2017-12-09T01:50:34.626Z,15.70
2017-12-09T01:53:02.257Z,18.90
2017-12-09T01:55:29.755Z,18.45
2017-12-09T01:57:57.268Z,17.10
2017-12-09T02:00:24.817Z,19.00
2017-12-09T02:02:52.297Z,16.58
2017-12-09T02:05:19.866Z,17.20
2017-12-09T02:07:47.386Z,18.73
2017-12-09T02:10:15.668Z,16.23
2017-12-09T02:12:43.158Z,18.35
2017-12-09T02:15:10.705Z,14.87
2017-12-09T02:17:38.198Z,15.43
2017-12-09T02:20:05.701Z,13.98
2017-12-09T02:22:33.213Z,18.35
2017-12-09T02:25:00.711Z,13.85
2017-12-09T02:27:28.968Z,17.15
2017-12-09T02:29:56.540Z,13.57
2017-12-09T02:32:24.790Z,15.68
2017-12-09T02:34:52.302Z,15.73
2017-12-09T02:37:19.877Z,17.12
2017-12-09T02:39:47.380Z,14.77
2017-12-09T02:42:15.647Z,17.77
2017-12-09T02:44:43.158Z,17.90
2017-12-09T02:47:10.704Z,12.05
2017-12-09T02:49:38.238Z,17.20
2017-12-09T02:52:06.521Z,16.45
2017-12-09T02:54:34.770Z,19.48
2017-12-09T02:57:02.282Z,16.85
2017-12-09T02:59:29.813Z,17.67
2017-12-09T03:01:58.070Z,17.00
2017-12-09T03:04:25.553Z,19.83
2017-12-09T03:06:53.083Z,13.48
2017-12-09T03:09:20.574Z,15.13
2017-12-09T03:11:48.066Z,17.20
2017-12-09T03:14:15.585Z,16.40
2017-12-09T03:16:43.065Z,15.45
2017-12-09T03:19:10.555Z,16.30
2017-12-09T03:21:38.070Z,18.87
2017-12-09T03:24:05.576Z,12.20
2017-12-09T03:26:33.088Z,16.70
2017-12-09T03:29:00.601Z,14.07
2017-12-09T03:31:28.094Z,12.30
2017-12-09T03:33:55.590Z,17.05
2017-12-09T03:36:23.104Z,18.23
2017-12-09T03:38:50.594Z,13.98
2017-12-09T03:41:18.094Z,14.15
2017-12-09T03:43:45.604Z,16.77
2017-12-09T03:46:13.086Z,16.77
2017-12-09T03:48:40.588Z,10.98
2017-12-09T03:51:08.879Z,13.60
2017-12-09T03:53:36.440Z,11.27
2017-12-09T03:56:03.925Z,10.63
2017-12-09T03:58:31.448Z,9.95
2017-12-09T04:00:58.957Z,10.15
2017-12-09T04:03:26.448Z,9.88
2017-12-09T04:05:54.777Z,10.85
2017-12-09T04:08:22.286Z,10.57
2017-12-09T04:10:50.552Z,11.25
2017-12-09T04:13:18.833Z,10.23
2017-12-09T04:15:47.084Z,11.12
2017-12-09T04:18:14.631Z,11.18
2017-12-09T04:20:42.130Z,12.07
2017-12-09T04:23:10.404Z,8.52
2017-12-09T04:25:38.650Z,9.63
2017-12-09T04:28:06.931Z,9.48
2017-12-09T04:30:34.411Z,8.65
2017-12-09T04:33:02.688Z,8.80
2017-12-09T04:35:30.980Z,8.15
2017-12-09T04:37:58.555Z,7.32
2017-12-09T04:40:26.037Z,5.60
2017-12-09T04:42:53.546Z,6.68
2017-12-09T04:45:21.115Z,6.72
2017-12-09T04:47:48.602Z,6.60
2017-12-09T04:50:16.126Z,6.40
2017-12-09T04:52:43.623Z,6.03
2017-12-09T04:55:11.133Z,6.40
2017-12-09T04:57:39.428Z,6.70
2017-12-09T05:00:06.992Z,5.82
2017-12-09T05:02:34.472Z,5.87
2017-12-09T05:05:01.995Z,5.12
2017-12-09T05:07:29.492Z,5.35
2017-12-09T05:09:56.991Z,4.87
2017-12-09T05:12:25.378Z,5.50
2017-12-09T05:14:53.641Z,5.43
2017-12-09T05:17:21.912Z,5.78
2017-12-09T05:19:49.413Z,5.32
2017-12-09T05:22:16.907Z,5.37
2017-12-09T05:24:44.414Z,4.85
2017-12-09T05:27:11.931Z,5.95
2017-12-09T05:29:39.418Z,4.35
2017-12-09T05:32:07.698Z,4.70
2017-12-09T05:34:35.978Z,5.82
2017-12-09T05:37:03.462Z,5.40
2017-12-09T05:39:30.990Z,4.72
2017-12-09T05:41:59.257Z,4.75
2017-12-09T05:44:27.548Z,4.80
2017-12-09T05:46:55.097Z,5.50
2017-12-09T05:49:23.370Z,4.97
2017-12-09T05:51:51.632Z,5.95
2017-12-09T05:54:19.131Z,5.00
2017-12-09T05:56:46.665Z,7.25
2017-12-09T05:59:15.065Z,4.50
2017-12-09T06:01:42.563Z,6.00
2017-12-09T06:04:10.065Z,5.30
2017-12-09T06:06:37.617Z,6.10
2017-12-09T06:09:05.879Z,4.85
2017-12-09T06:11:33.385Z,5.62
2017-12-09T06:14:00.870Z,6.25
2017-12-09T06:16:28.367Z,5.68
2017-12-09T06:18:55.898Z,6.03
2017-12-09T06:21:23.400Z,6.25
2017-12-09T06:23:50.941Z,6.55
2017-12-09T06:26:19.317Z,6.20
2017-12-09T06:28:47.571Z,5.72
2017-12-09T06:31:15.063Z,5.95
2017-12-09T06:33:42.583Z,5.65
2017-12-09T06:36:10.084Z,6.10
2017-12-09T06:38:37.597Z,5.65
2017-12-09T06:41:06.632Z,5.50
2017-12-09T06:43:34.109Z,5.20
2017-12-09T06:46:01.599Z,6.45
2017-12-09T06:48:29.106Z,7.28
2017-12-09T06:50:56.612Z,5.57
2017-12-09T06:53:24.105Z,5.55
2017-12-09T06:55:52.381Z,5.37
2017-12-09T06:58:20.646Z,5.40
2017-12-09T07:00:48.905Z,4.85
2017-12-09T07:03:16.425Z,4.93
2017-12-09T07:05:43.918Z,6.15
2017-12-09T07:08:11.424Z,4.95
2017-12-09T07:10:38.929Z,6.43
2017-12-09T07:13:06.419Z,9.93
2017-12-09T07:15:34.665Z,4.87
2017-12-09T07:18:02.180Z,6.35
2017-12-09T07:20:29.689Z,9.52
2017-12-09T07:22:57.174Z,8.18
2017-12-09T07:25:25.450Z,8.60
2017-12-09T07:27:53.706Z,10.15
2017-12-09T07:30:21.228Z,12.02
2017-12-09T07:32:48.723Z,12.07
2017-12-09T07:35:16.251Z,9.15
2017-12-09T07:37:43.779Z,11.65
2017-12-09T07:40:11.294Z,13.45
2017-12-09T07:42:38.808Z,14.52
2017-12-09T07:45:06.302Z,14.05
2017-12-09T07:47:33.823Z,13.15
2017-12-09T07:50:01.309Z,15.07
2017-12-09T07:52:28.828Z,12.52
2017-12-09T07:54:56.317Z,11.30
2017-12-09T07:57:23.822Z,11.95
2017-12-09T07:59:52.073Z,10.25
2017-12-09T08:02:19.600Z,11.38
2017-12-09T08:04:47.111Z,9.93
2017-12-09T08:07:15.380Z,9.27
2017-12-09T08:09:43.654Z,11.10
2017-12-09T08:12:11.162Z,8.52
2017-12-09T08:14:38.677Z,8.15
2017-12-09T08:17:06.961Z,7.70
2017-12-09T08:19:35.243Z,10.80
2017-12-09T08:22:02.750Z,8.10
2017-12-09T08:24:30.233Z,8.50
2017-12-09T08:26:57.734Z,10.38
2017-12-09T08:29:25.288Z,9.27
2017-12-09T08:31:52.803Z,11.05
2017-12-09T08:34:20.302Z,9.82
2017-12-09T08:36:47.856Z,9.55
2017-12-09T08:39:15.538Z,8.65
2017-12-09T08:41:43.021Z,8.70
2017-12-09T08:44:10.532Z,9.85
2017-12-09T08:46:38.019Z,9.25
2017-12-09T08:49:05.545Z,10.13
2017-12-09T08:51:33.801Z,11.48
2017-12-09T08:54:01.349Z,9.40
2017-12-09T08:56:28.847Z,13.35
2017-12-09T08:58:56.406Z,12.20
2017-12-09T09:01:23.967Z,15.02
2017-12-09T09:03:51.484Z,14.90
2017-12-09T09:06:19.004Z,15.82
2017-12-09T09:08:46.515Z,12.07
2017-12-09T09:11:14.789Z,15.18
2017-12-09T09:13:42.278Z,12.73
2017-12-09T09:16:09.771Z,15.10
2017-12-09T09:18:37.383Z,10.00
2017-12-09T09:21:04.887Z,12.23
2017-12-09T09:23:32.369Z,12.32
2017-12-09T09:25:59.878Z,10.90
2017-12-09T09:28:27.379Z,11.65
2017-12-09T09:30:54.876Z,9.38
2017-12-09T09:33:22.396Z,11.18
2017-12-09T09:35:49.887Z,10.93
2017-12-09T09:38:18.169Z,12.05
2017-12-09T09:40:45.676Z,10.15
2017-12-09T09:43:14.067Z,11.32
2017-12-09T09:45:41.574Z,12.65
2017-12-09T09:48:09.061Z,9.90
2017-12-09T09:50:36.569Z,12.95
2017-12-09T09:53:04.831Z,11.00
2017-12-09T09:55:32.401Z,12.20
2017-12-09T09:58:00.666Z,9.77
2017-12-09T10:00:28.931Z,10.90
2017-12-09T10:02:57.310Z,9.85
2017-12-09T10:05:24.774Z,9.90
2017-12-09T10:07:53.029Z,11.43
2017-12-09T10:10:20.530Z,11.07
2017-12-09T10:12:48.038Z,12.40
2017-12-09T10:15:15.544Z,9.90
2017-12-09T10:17:43.806Z,10.80
2017-12-09T10:20:12.083Z,11.65
2017-12-09T10:22:40.360Z,10.35
2017-12-09T10:25:08.633Z,11.10
2017-12-09T10:27:36.942Z,13.88
2017-12-09T10:30:04.430Z,13.40
2017-12-09T10:32:32.064Z,12.98
2017-12-09T10:34:59.572Z,14.40
2017-12-09T10:37:27.060Z,12.82
2017-12-09T10:39:55.357Z,12.90
2017-12-09T10:42:22.846Z,12.88
2017-12-09T10:44:50.352Z,12.75
2017-12-09T10:47:17.858Z,13.23
2017-12-09T10:49:45.345Z,12.10
2017-12-09T10:52:12.861Z,12.30
2017-12-09T10:54:40.344Z,10.90
2017-12-09T10:57:07.848Z,12.05
2017-12-09T10:59:35.372Z,12.88
2017-12-09T11:02:02.876Z,13.13
2017-12-09T11:04:30.399Z,13.40
2017-12-09T11:06:58.664Z,8.27
2017-12-09T11:09:26.183Z,13.77
2017-12-09T11:11:53.708Z,11.77
2017-12-09T11:14:21.228Z,11.88
2017-12-09T11:16:48.746Z,12.23
2017-12-09T11:19:16.278Z,13.30
2017-12-09T11:21:43.855Z,11.35
2017-12-09T11:24:11.398Z,12.37
2017-12-09T11:26:39.700Z,13.23
2017-12-09T11:29:07.207Z,15.52
2017-12-09T11:31:34.708Z,13.73
2017-12-09T11:34:02.223Z,16.08
2017-12-09T11:36:29.705Z,17.45
2017-12-09T11:38:57.982Z,15.05
2017-12-09T11:41:26.259Z,15.13
2017-12-09T11:43:54.509Z,18.73
2017-12-09T11:46:22.045Z,13.00
2017-12-09T11:48:49.529Z,17.30
2017-12-09T11:51:17.023Z,14.68
2017-12-09T11:53:44.534Z,18.15
2017-12-09T11:56:12.017Z,16.77
2017-12-09T11:58:40.300Z,19.25
2017-12-09T12:01:07.883Z,18.65
2017-12-09T12:03:35.378Z,17.25
2017-12-09T12:06:02.891Z,20.12
2017-12-09T12:08:30.386Z,18.55
2017-12-09T12:10:57.909Z,21.92
2017-12-09T12:13:25.432Z,18.98
2017-12-09T12:15:53.695Z,18.83
2017-12-09T12:18:21.203Z,21.98
2017-12-09T12:20:48.711Z,18.95
2017-12-09T12:23:16.228Z,20.15
2017-12-09T12:25:43.719Z,16.30
2017-12-09T12:28:11.344Z,22.73
2017-12-09T12:30:38.846Z,24.60
2017-12-09T12:33:07.837Z,23.60
2017-12-09T12:35:35.360Z,22.90
2017-12-09T12:38:02.872Z,22.30
2017-12-09T12:40:31.144Z,22.45
2017-12-09T12:42:58.658Z,21.30
2017-12-09T12:45:26.141Z,22.90
2017-12-09T12:47:53.648Z,18.10
2017-12-09T12:50:21.163Z,20.35
2017-12-09T12:52:48.653Z,19.12
2017-12-09T12:55:16.181Z,17.60
2017-12-09T12:57:43.783Z,17.85
2017-12-09T13:00:11.338Z,18.45
2017-12-09T13:02:38.851Z,16.85
2017-12-09T13:05:06.369Z,21.17
2017-12-09T13:07:33.865Z,17.62
2017-12-09T13:10:01.380Z,16.25
2017-12-09T13:12:28.886Z,17.00
2017-12-09T13:14:56.377Z,19.55
2017-12-09T13:17:24.647Z,21.08
2017-12-09T13:19:52.920Z,20.15
2017-12-09T13:22:20.546Z,19.35
2017-12-09T13:24:48.041Z,19.87
2017-12-09T13:27:15.563Z,17.85
2017-12-09T13:29:43.053Z,20.67
2017-12-09T13:32:10.542Z,21.08
2017-12-09T13:34:38.811Z,20.60
2017-12-09T13:37:07.084Z,18.25
2017-12-09T13:39:35.365Z,19.83
2017-12-09T13:42:03.654Z,20.95
2017-12-09T13:44:31.175Z,19.25
2017-12-09T13:47:00.204Z,18.02
2017-12-09T13:49:27.703Z,19.52
2017-12-09T13:51:55.185Z,20.02
2017-12-09T13:54:22.725Z,20.25
2017-12-09T13:56:50.224Z,13.93
2017-12-09T13:59:18.471Z,21.90
2017-12-09T14:01:45.978Z,17.33
2017-12-09T14:04:13.466Z,18.85
2017-12-09T14:06:40.963Z,18.25
2017-12-09T14:09:08.483Z,20.08
2017-12-09T14:11:35.993Z,17.17
2017-12-09T14:14:03.537Z,21.87
2017-12-09T14:16:31.085Z,20.27
2017-12-09T14:18:58.590Z,19.70
2017-12-09T14:21:26.122Z,20.00
2017-12-09T14:23:54.433Z,18.23
2017-12-09T14:26:21.964Z,19.05
2017-12-09T14:28:50.238Z,18.58
2017-12-09T14:31:18.638Z,17.15
2017-12-09T14:33:46.165Z,18.60
2017-12-09T14:36:13.679Z,16.77
2017-12-09T14:38:41.194Z,19.27
2017-12-09T14:41:09.447Z,15.55
2017-12-09T14:43:36.983Z,17.17
2017-12-09T14:46:04.484Z,16.10
2017-12-09T14:48:32.008Z,19.80
2017-12-09T14:50:59.531Z,17.65
2017-12-09T14:53:27.052Z,14.18
2017-12-09T14:55:54.552Z,16.00
2017-12-09T14:58:22.127Z,18.35
2017-12-09T15:00:49.620Z,15.45
2017-12-09T15:03:17.198Z,16.50
2017-12-09T15:05:45.468Z,16.30
2017-12-09T15:08:12.950Z,12.80
2017-12-09T15:10:40.461Z,14.48
2017-12-09T15:13:07.969Z,18.25
2017-12-09T15:15:35.476Z,18.25
2017-12-09T15:18:02.991Z,19.42
2017-12-09T15:20:30.474Z,15.65
2017-12-09T15:22:57.977Z,19.12
2017-12-09T15:25:26.250Z,17.10
2017-12-09T15:27:54.528Z,14.05
2017-12-09T15:30:22.783Z,15.02
2017-12-09T15:32:50.303Z,15.73
2017-12-09T15:35:17.804Z,13.98
2017-12-09T15:37:45.303Z,18.27
2017-12-09T15:40:12.822Z,18.50
2017-12-09T15:42:40.320Z,14.55
2017-12-09T15:45:07.811Z,17.20
2017-12-09T15:47:35.336Z,16.50
2017-12-09T15:50:02.853Z,17.37
2017-12-09T15:52:30.342Z,16.85
2017-12-09T15:54:57.855Z,13.88
2017-12-09T15:57:25.362Z,15.52
2017-12-09T15:59:52.891Z,15.70
2017-12-09T16:02:20.397Z,13.65
2017-12-09T16:04:47.908Z,14.57
2017-12-09T16:07:15.432Z,13.45
2017-12-09T16:09:42.922Z,14.95
2017-12-09T16:12:10.429Z,15.73
2017-12-09T16:14:37.974Z,14.07
2017-12-09T16:17:05.484Z,13.25
2017-12-09T16:19:32.986Z,12.30
2017-12-09T16:22:00.503Z,15.52
2017-12-09T16:24:28.008Z,11.93
2017-12-09T16:26:55.517Z,12.88
2017-12-09T16:29:23.027Z,14.18
2017-12-09T16:31:50.548Z,12.98
2017-12-09T16:34:18.033Z,14.30
2017-12-09T16:36:45.540Z,10.52
2017-12-09T16:39:13.063Z,10.38
2017-12-09T16:41:40.545Z,10.82
2017-12-09T16:44:08.047Z,14.07
2017-12-09T16:46:35.572Z,12.88
2017-12-09T16:49:03.085Z,14.75
2017-12-09T16:51:30.588Z,15.45
2017-12-09T16:53:58.124Z,14.05
2017-12-09T16:56:25.614Z,11.50
2017-12-09T16:58:53.112Z,9.45
2017-12-09T17:01:21.999Z,11.38
2017-12-09T17:03:50.272Z,9.75
2017-12-09T17:06:18.530Z,11.43
2017-12-09T17:08:46.042Z,14.13
2017-12-09T17:11:13.540Z,19.15
2017-12-09T17:13:42.554Z,15.82
2017-12-09T17:16:10.085Z,11.70
2017-12-09T17:18:37.587Z,15.38
2017-12-09T17:21:05.156Z,16.12
2017-12-09T17:23:32.675Z,16.83
2017-12-09T17:26:00.948Z,20.58
2017-12-09T17:28:28.527Z,18.05
2017-12-09T17:30:56.841Z,18.23
2017-12-09T17:33:24.341Z,20.25
2017-12-09T17:35:51.960Z,17.12
2017-12-09T17:38:19.440Z,21.10
2017-12-09T17:40:46.959Z,18.60
2017-12-09T17:43:14.476Z,15.90
2017-12-09T17:45:41.991Z,19.60
2017-12-09T17:48:09.505Z,18.65
2017-12-09T17:50:36.999Z,14.77
2017-12-09T17:53:04.504Z,17.27
2017-12-09T17:55:32.040Z,12.70
2017-12-09T17:57:59.544Z,14.80
2017-12-09T18:00:27.846Z,9.98
2017-12-09T18:02:55.338Z,16.12
2017-12-09T18:05:22.855Z,13.68
2017-12-09T18:07:50.361Z,12.15
2017-12-09T18:10:17.863Z,9.88
2017-12-09T18:12:46.134Z,12.77
2017-12-09T18:15:14.436Z,13.52
2017-12-09T18:17:42.001Z,11.60
2017-12-09T18:20:09.515Z,11.05
2017-12-09T18:22:37.015Z,12.25
2017-12-09T18:25:04.537Z,12.05
2017-12-09T18:27:32.790Z,9.38
2017-12-09T18:30:00.317Z,11.70
2017-12-09T18:32:27.820Z,11.18
2017-12-09T18:34:55.301Z,12.13
2017-12-09T18:37:23.561Z,7.87
2017-12-09T18:39:51.833Z,9.25
2017-12-09T18:42:20.101Z,10.57
2017-12-09T18:44:47.629Z,9.23
2017-12-09T18:47:15.143Z,9.43
2017-12-09T18:49:43.420Z,10.88
2017-12-09T18:52:11.669Z,9.98
2017-12-09T18:54:39.170Z,9.75
2017-12-09T18:57:06.668Z,8.57
2017-12-09T18:59:34.162Z,9.82
2017-12-09T19:02:02.474Z,9.70
2017-12-09T19:04:29.964Z,10.82
2017-12-09T19:06:57.466Z,9.45
2017-12-09T19:09:25.751Z,12.68
2017-12-09T19:11:53.254Z,10.77
2017-12-09T19:14:20.753Z,12.77
2017-12-09T19:16:49.043Z,13.77
2017-12-09T19:19:16.590Z,10.68
2017-12-09T19:21:44.846Z,11.38
2017-12-09T19:24:12.407Z,8.63
2017-12-09T19:26:39.889Z,9.48
2017-12-09T19:29:07.775Z,13.75
2017-12-09T19:31:35.320Z,11.85
2017-12-09T19:34:02.830Z,11.15
2017-12-09T19:36:30.331Z,12.20
2017-12-09T19:38:57.904Z,10.07
2017-12-09T19:41:25.394Z,11.35
2017-12-09T19:43:52.894Z,10.98
2017-12-09T19:46:21.184Z,11.02
2017-12-09T19:48:48.665Z,9.40
2017-12-09T19:51:16.271Z,9.60
2017-12-09T19:53:43.785Z,11.20
2017-12-09T19:56:11.275Z,11.63
2017-12-09T19:58:38.762Z,12.00
2017-12-09T20:01:07.171Z,10.18
2017-12-09T20:03:34.649Z,8.98
2017-12-09T20:06:02.146Z,11.70
2017-12-09T20:08:30.422Z,10.30
2017-12-09T20:10:57.921Z,8.65
2017-12-09T20:13:25.429Z,10.23
2017-12-09T20:15:52.957Z,12.02
2017-12-09T20:18:20.451Z,9.32
2017-12-09T20:20:47.962Z,9.02
2017-12-09T20:23:15.446Z,8.93
2017-12-09T20:25:42.976Z,10.10
2017-12-09T20:28:10.473Z,9.55
2017-12-09T20:30:37.957Z,9.95
2017-12-09T20:33:06.239Z,8.73
2017-12-09T20:35:34.494Z,10.88
2017-12-09T20:38:02.763Z,10.27
2017-12-09T20:40:30.365Z,8.95
2017-12-09T20:42:57.859Z,7.30
2017-12-09T20:45:25.375Z,7.03
2017-12-09T20:47:52.892Z,7.50
2017-12-09T20:50:20.378Z,8.45
2017-12-09T20:52:48.650Z,9.30
2017-12-09T20:55:16.967Z,8.00
2017-12-09T20:57:44.465Z,7.28
2017-12-09T21:00:12.074Z,7.25
2017-12-09T21:02:39.586Z,8.10
2017-12-09T21:05:07.197Z,8.48
2017-12-09T21:07:34.696Z,6.35
2017-12-09T21:10:02.193Z,6.65
2017-12-09T21:12:29.746Z,8.55
2017-12-09T21:14:58.037Z,6.57
2017-12-09T21:17:25.537Z,6.05
2017-12-09T21:19:53.039Z,7.12
2017-12-09T21:22:21.315Z,7.60
2017-12-09T21:24:48.840Z,9.18
2017-12-09T21:27:16.345Z,6.68
2017-12-09T21:29:43.830Z,7.93
2017-12-09T21:32:11.331Z,8.23
2017-12-09T21:34:39.615Z,8.18
2017-12-09T21:37:07.908Z,8.05
2017-12-09T21:39:35.401Z,7.80
2017-12-09T21:42:02.928Z,7.32
2017-12-09T21:44:30.414Z,8.05
2017-12-09T21:46:57.938Z,8.35
2017-12-09T21:49:25.417Z,7.90
2017-12-09T21:51:52.932Z,6.82
2017-12-09T21:54:21.197Z,6.35
2017-12-09T21:56:48.800Z,7.35
2017-12-09T21:59:16.318Z,6.37
2017-12-09T22:01:44.621Z,7.05
2017-12-09T22:04:12.867Z,6.18
2017-12-09T22:06:40.381Z,6.70
2017-12-09T22:09:07.896Z,6.53
2017-12-09T22:11:35.405Z,6.32
2017-12-09T22:14:02.904Z,6.28
2017-12-09T22:16:30.409Z,6.97
2017-12-09T22:18:57.910Z,5.45
2017-12-09T22:21:25.428Z,6.10
2017-12-09T22:23:52.979Z,7.25
2017-12-09T22:26:20.467Z,6.30
2017-12-09T22:28:47.974Z,4.82
2017-12-09T22:31:16.256Z,5.35
2017-12-09T22:33:44.503Z,5.10
2017-12-09T22:36:13.518Z,5.55
2017-12-09T22:38:41.770Z,6.00
2017-12-09T22:41:10.062Z,5.05
2017-12-09T22:43:37.570Z,5.10
2017-12-09T22:46:05.077Z,5.65
2017-12-09T22:48:32.565Z,4.93
2017-12-09T22:51:00.065Z,5.20
2017-12-09T22:53:27.579Z,4.68
2017-12-09T22:55:55.094Z,5.78
2017-12-09T22:58:22.581Z,4.45
2017-12-09T23:00:50.918Z,4.93
2017-12-09T23:03:18.387Z,4.53
2017-12-09T23:05:46.640Z,5.03
2017-12-09T23:08:14.174Z,4.47
2017-12-09T23:10:41.658Z,4.95
2017-12-09T23:13:09.145Z,5.18
2017-12-09T23:15:36.642Z,4.32
2017-12-09T23:18:04.189Z,4.57
2017-12-09T23:20:32.477Z,4.40
2017-12-09T23:23:00.082Z,3.85
2017-12-09T23:25:27.569Z,4.37
2017-12-09T23:27:55.069Z,4.65
2017-12-09T23:30:22.557Z,3.80
2017-12-09T23:32:50.073Z,4.05
2017-12-09T23:35:17.562Z,3.87
2017-12-09T23:37:45.049Z,4.00
2017-12-09T23:40:12.549Z,3.97
2017-12-09T23:42:40.031Z,3.40
2017-12-09T23:45:07.528Z,4.25
2017-12-09T23:47:35.118Z,3.75
2017-12-09T23:50:02.630Z,3.95
2017-12-09T23:52:30.110Z,3.67
2017-12-09T23:54:57.613Z,4.03
2017-12-09T23:57:25.089Z,3.42
2017-12-09T23:59:52.585Z,4.57
